»·PEaware :: AAR304 KLAX-KSFO

AAR304 :: KLAX-KSFO

FLIGHT INFORMATION

Flight Status: Arrived
Operator:
Asiana Airlines
More flights by this operator :: More flights under this callsign
Pilot: Zachary C. (8151)
Aircraft: BOEING 777-200
(B772)
More flights by this aircraft type
Origin: KLAX Los Angeles Intl
United States
Destination: KSFO San Francisco Intl
United States
More flights between these airports :: More routes between these airports
Route: FIXIT2 RZS J501 ZONAL SERFR SERFR1
File this flight plan on PilotEdge
Remarks:
Altitude:
(Current/Filed)
34,000ft
Speed:
(Current/Filed)
450kts
Departed: 19-Nov-15 05:06 PM
Arrived: 19-Nov-15 06:01 PM
Distance/Time
Traveled:
294nm/0:55
Distance/Time
To Go:
Arrived

Flight Plot

Page will automatically refresh every two minutes.


Map Options




Map Legend


Flown Route
Filed Route
Departure Airport
Arrival Airport
Navaid (VOR, NDB)
Fix

Horizontal Profiles

Position Reports

Time Latitude Longitude Heading Altitude Ground
Speed
19-Nov-15 16:39 33.940660 -118.403697 263 142ft 0kts
19-Nov-15 16:40 33.940660 -118.403697 263 142ft 0kts
19-Nov-15 16:41 33.940660 -118.403697 263 142ft 0kts
19-Nov-15 16:42 33.940660 -118.403697 263 142ft 0kts
19-Nov-15 16:43 33.940660 -118.403697 263 142ft 0kts
19-Nov-15 16:44 33.940660 -118.403697 263 142ft 0kts
19-Nov-15 16:45 33.940660 -118.403697 263 142ft 0kts
19-Nov-15 16:46 33.940879 -118.403219 184 142ft 2kts
19-Nov-15 16:47 33.940941 -118.403218 169 142ft 0kts
19-Nov-15 16:48 33.940941 -118.403218 169 142ft 0kts
19-Nov-15 16:49 33.940941 -118.403218 169 142ft 0kts
19-Nov-15 16:50 33.940941 -118.403218 169 142ft 0kts
19-Nov-15 16:51 33.940941 -118.403218 169 142ft 0kts
19-Nov-15 16:52 33.940941 -118.403218 169 142ft 0kts
19-Nov-15 16:53 33.940941 -118.403218 169 142ft 0kts
19-Nov-15 16:54 33.940941 -118.403218 169 142ft 0kts
19-Nov-15 16:55 33.940941 -118.403218 169 142ft 0kts
19-Nov-15 16:56 33.940690 -118.403157 169 142ft 0kts
19-Nov-15 16:57 33.940647 -118.403147 169 142ft 2kts
19-Nov-15 16:58 33.939337 -118.402617 88 142ft 4kts
19-Nov-15 16:59 33.938890 -118.398858 85 142ft 12kts
19-Nov-15 17:00 33.939478 -118.392924 81 142ft 21kts
19-Nov-15 17:01 33.940124 -118.386672 83 142ft 16kts
19-Nov-15 17:02 33.940694 -118.381164 82 142ft 8kts
19-Nov-15 17:03 33.940677 -118.380797 106 142ft 5kts
19-Nov-15 17:04 33.939509 -118.383349 262 142ft 65kts
19-Nov-15 17:05 33.941466 -118.439970 282 1950ft 225kts
19-Nov-15 17:06 33.942050 -118.514085 265 5015ft 236kts
19-Nov-15 17:07 33.935837 -118.590731 265 5053ft 251kts
19-Nov-15 17:08 33.928817 -118.679810 267 9023ft 275kts
19-Nov-15 17:09 33.921474 -118.774764 268 12453ft 298kts
19-Nov-15 17:10 33.920579 -118.875376 296 13569ft 307kts
19-Nov-15 17:11 33.962366 -118.962339 308 17080ft 305kts
19-Nov-15 17:12 34.040249 -118.996903 351 19741ft 321kts
19-Nov-15 17:13 34.129098 -119.013252 333 22088ft 333kts
19-Nov-15 17:13 34.180817 -119.086899 299 22997ft 361kts
19-Nov-15 17:14 34.232161 -119.192445 300 24651ft 371kts
19-Nov-15 17:15 34.285349 -119.301883 299 26998ft 385kts
19-Nov-15 17:16 34.340070 -119.415447 298 29055ft 399kts
19-Nov-15 17:17 34.396676 -119.533878 298 30902ft 413kts
19-Nov-15 17:18 34.454843 -119.656006 297 32579ft 426kts
19-Nov-15 17:19 34.518288 -119.779249 309 33990ft 443kts
19-Nov-15 17:20 34.613030 -119.884000 315 34026ft 484kts
19-Nov-15 17:21 34.715548 -119.996149 315 34020ft 499kts
19-Nov-15 17:22 34.818259 -120.108876 315 34029ft 498kts
19-Nov-15 17:23 34.921016 -120.221256 314 34044ft 496kts
19-Nov-15 17:24 35.023319 -120.334280 314 34046ft 496kts
19-Nov-15 17:25 35.124953 -120.447018 314 34049ft 497kts
19-Nov-15 17:26 35.227268 -120.560916 314 34055ft 498kts
19-Nov-15 17:28 35.329801 -120.675466 314 34054ft 498kts
19-Nov-15 17:29 35.431728 -120.789735 314 34083ft 496kts
19-Nov-15 17:30 35.539671 -120.893947 321 34135ft 496kts
19-Nov-15 17:31 35.649311 -120.991085 320 34132ft 481kts
19-Nov-15 17:32 35.755813 -121.085799 320 34124ft 476kts
19-Nov-15 17:33 35.863469 -121.181087 320 34043ft 471kts
19-Nov-15 17:34 35.969480 -121.275912 320 31015ft 475kts
19-Nov-15 17:35 36.072741 -121.368224 323 28282ft 410kts
19-Nov-15 17:36 36.164281 -121.439448 325 26434ft 383kts
19-Nov-15 17:37 36.253000 -121.508826 325 24628ft 371kts
19-Nov-15 17:38 36.338772 -121.576087 326 22863ft 360kts
19-Nov-15 17:39 36.421964 -121.641492 326 21129ft 350kts
19-Nov-15 17:40 36.503485 -121.705741 326 20120ft 342kts
19-Nov-15 17:41 36.582726 -121.768430 326 18355ft 337kts
19-Nov-15 17:42 36.660963 -121.830460 327 16724ft 329kts
19-Nov-15 17:43 36.737446 -121.890490 333 15040ft 318kts
19-Nov-15 17:44 36.820655 -121.916438 346 13085ft 317kts
19-Nov-15 17:45 36.905048 -121.940033 345 10720ft 314kts
19-Nov-15 17:46 36.988116 -121.967391 341 9969ft 299kts
19-Nov-15 17:47 37.060770 -121.995749 340 9336ft 261kts
19-Nov-15 17:48 37.129732 -122.022759 340 8082ft 259kts
19-Nov-15 17:49 37.197769 -122.049435 341 6927ft 254kts
19-Nov-15 17:50 37.264770 -122.075737 341 5996ft 249kts
19-Nov-15 17:51 37.331128 -122.101808 341 5949ft 250kts
19-Nov-15 17:52 37.399368 -122.128235 341 4636ft 257kts
19-Nov-15 17:53 37.466974 -122.154303 346 3431ft 253kts
19-Nov-15 17:54 37.531120 -122.176148 321 3075ft 215kts
19-Nov-15 17:55 37.562017 -122.240178 297 1956ft 215kts
19-Nov-15 17:56 37.585755 -122.296701 297 1152ft 166kts
19-Nov-15 17:57 37.604736 -122.342149 295 351ft 139kts
19-Nov-15 17:58 37.622304 -122.383650 298 31ft 107kts
19-Nov-15 17:59 37.624089 -122.390683 128 31ft 10kts
19-Nov-15 18:00 37.622165 -122.388158 139 30ft 9kts

Navigation Log

Ident Type
1. KLAX Airport
2. RZS Navaid
3. PEGRS Fix
4. ZONAL Fix
5. KSFO Airport